Terminal Aerodrome Forecast
Issued by NWS

Home | Current Version | Previous Version | Text Only | Print | Product List | Glossary On
Versions: 1 2 3 4 5 6 7 8 9 10 11 12 13 14 15 16 17 18 19 20 21 22 23 24 25 26 27 28 29 30 31 32 33 34 35 36 37 38 39 40 41 42 43 44 45 46 47 48 49 50
634
FTUS43 KLOT 291120
TAFGYY
TAF
KGYY 291120Z 2912/3012 05006KT 1/2SM FG OVC002
      TEMPO 2912/2914 1/4SM FG
     FM291500 08011KT 3SM BR OVC006
     FM291700 06013KT P6SM FEW008 BKN120
     FM292100 07014G22KT P6SM SCT060 BKN100
     FM300100 09011KT P6SM SCT030 OVC060
     FM300800 09016G25KT 4SM -SHRA BKN030 OVC050 PROB30 3010/3012
      2SM -TSRA OVC030CB=

USA.gov is the U.S. government's official web portal to all federal, state and local government web resources and services.